Terminal Aerodrome Forecast
Issued by NWS Sioux Falls, SD

Home | Current Version | Previous Version | Text Only | Print | Product List | Glossary On
Versions: 1 2 3 4 5 6 7 8 9 10 11 12 13
000
FTUS43 KFSD 201724
TAFFSD
TAF
KFSD 201724Z 2018/2118 01009KT P6SM SCT250
     FM210100 04006KT P6SM FEW200
     FM210800 12007KT P6SM SCT200
     FM211300 12010KT P6SM BKN150
     FM211700 14014G21KT P6SM BKN140=

USA.gov is the U.S. government's official web portal to all federal, state and local government web resources and services.